sensor_id;sensor_type;location;lat;lon;timestamp;P1;P4;P2;P0;N10;N4;N25;N1;N05;TS
63316;SPS30;49822;41.468;13.560;2023-09-19T00:00:35;17.55;;5.32;;;;;;;
63316;SPS30;49822;41.468;13.560;2023-09-19T00:03:02;17.13;;4.90;;;;;;;
63316;SPS30;49822;41.468;13.560;2023-09-19T00:05:28;10.35;;4.95;;;;;;;
63316;SPS30;49822;41.468;13.560;2023-09-19T00:07:57;14.63;;5.20;;;;;;;
63316;SPS30;49822;41.468;13.560;2023-09-19T00:10:26;14.85;;4.82;;;;;;;
63316;SPS30;49822;41.468;13.560;2023-09-19T00:12:56;12.00;;5.10;;;;;;;
63316;SPS30;49822;41.468;13.560;2023-09-19T00:15:26;14.52;;5.15;;;;;;;
63316;SPS30;49822;41.468;13.560;2023-09-19T00:17:54;13.45;;4.90;;;;;;;
63316;SPS30;49822;41.468;13.560;2023-09-19T00:20:21;14.18;;5.63;;;;;;;
63316;SPS30;49822;41.468;13.560;2023-09-19T00:22:50;11.48;;5.25;;;;;;;
63316;SPS30;49822;41.468;13.560;2023-09-19T00:25:18;17.85;;7.97;;;;;;;
63316;SPS30;49822;41.468;13.560;2023-09-19T00:27:47;19.27;;8.77;;;;;;;
63316;SPS30;49822;41.468;13.560;2023-09-19T00:30:17;16.50;;7.20;;;;;;;
63316;SPS30;49822;41.468;13.560;2023-09-19T00:32:52;25.98;;8.00;;;;;;;
63316;SPS30;49822;41.468;13.560;2023-09-19T00:35:18;17.52;;7.30;;;;;;;
63316;SPS30;49822;41.468;13.560;2023-09-19T00:37:44;23.52;;7.50;;;;;;;
63316;SPS30;49822;41.468;13.560;2023-09-19T00:40:10;16.58;;6.97;;;;;;;
63316;SPS30;49822;41.468;13.560;2023-09-19T00:42:44;17.67;;7.80;;;;;;;
63316;SPS30;49822;41.468;13.560;2023-09-19T00:45:11;17.40;;6.75;;;;;;;
63316;SPS30;49822;41.468;13.560;2023-09-19T00:47:45;12.73;;5.75;;;;;;;
63316;SPS30;49822;41.468;13.560;2023-09-19T00:50:16;14.35;;5.60;;;;;;;
63316;SPS30;49822;41.468;13.560;2023-09-19T00:52:48;14.15;;5.70;;;;;;;
63316;SPS30;49822;41.468;13.560;2023-09-19T00:55:18;13.77;;6.07;;;;;;;
63316;SPS30;49822;41.468;13.560;2023-09-19T00:57:48;16.20;;5.90;;;;;;;
63316;SPS30;49822;41.468;13.560;2023-09-19T01:00:18;14.18;;6.43;;;;;;;
63316;SPS30;49822;41.468;13.560;2023-09-19T01:02:50;17.13;;6.55;;;;;;;
63316;SPS30;49822;41.468;13.560;2023-09-19T01:05:17;21.83;;6.53;;;;;;;
63316;SPS30;49822;41.468;13.560;2023-09-19T01:07:44;18.20;;5.68;;;;;;;
63316;SPS30;49822;41.468;13.560;2023-09-19T01:10:11;14.73;;5.30;;;;;;;
63316;SPS30;49822;41.468;13.560;2023-09-19T01:17:57;12.70;;5.20;;;;;;;
63316;SPS30;49822;41.468;13.560;2023-09-19T01:20:37;14.95;;5.53;;;;;;;
63316;SPS30;49822;41.468;13.560;2023-09-19T01:29:24;17.52;;5.55;;;;;;;
63316;SPS30;49822;41.468;13.560;2023-09-19T01:32:04;17.52;;5.13;;;;;;;
63316;SPS30;49822;41.468;13.560;2023-09-19T01:34:49;17.90;;5.45;;;;;;;
63316;SPS30;49822;41.468;13.560;2023-09-19T01:37:29;11.25;;5.38;;;;;;;
63316;SPS30;49822;41.468;13.560;2023-09-19T01:40:02;11.55;;5.15;;;;;;;
63316;SPS30;49822;41.468;13.560;2023-09-19T01:42:45;12.95;;5.07;;;;;;;
63316;SPS30;49822;41.468;13.560;2023-09-19T01:51:10;9.60;;5.03;;;;;;;
63316;SPS30;49822;41.468;13.560;2023-09-19T01:53:50;10.63;;5.03;;;;;;;
63316;SPS30;49822;41.468;13.560;2023-09-19T01:56:31;16.38;;5.15;;;;;;;
63316;SPS30;49822;41.468;13.560;2023-09-19T01:59:07;9.98;;5.35;;;;;;;
63316;SPS30;49822;41.468;13.560;2023-09-19T02:01:37;11.63;;5.07;;;;;;;
63316;SPS30;49822;41.468;13.560;2023-09-19T02:04:04;13.63;;5.22;;;;;;;
63316;SPS30;49822;41.468;13.560;2023-09-19T02:06:31;15.57;;5.25;;;;;;;
63316;SPS30;49822;41.468;13.560;2023-09-19T02:08:59;16.13;;5.57;;;;;;;
63316;SPS30;49822;41.468;13.560;2023-09-19T02:11:25;12.75;;4.80;;;;;;;
63316;SPS30;49822;41.468;13.560;2023-09-19T02:13:51;11.90;;4.78;;;;;;;
63316;SPS30;49822;41.468;13.560;2023-09-19T02:16:20;20.58;;5.15;;;;;;;
63316;SPS30;49822;41.468;13.560;2023-09-19T02:18:47;13.35;;4.53;;;;;;;
63316;SPS30;49822;41.468;13.560;2023-09-19T02:21:17;16.73;;5.50;;;;;;;
63316;SPS30;49822;41.468;13.560;2023-09-19T02:23:44;24.45;;6.13;;;;;;;
63316;SPS30;49822;41.468;13.560;2023-09-19T02:26:12;12.40;;5.20;;;;;;;
63316;SPS30;49822;41.468;13.560;2023-09-19T02:28:40;11.82;;4.85;;;;;;;
63316;SPS30;49822;41.468;13.560;2023-09-19T02:31:09;11.52;;4.93;;;;;;;
63316;SPS30;49822;41.468;13.560;2023-09-19T02:33:42;12.30;;4.70;;;;;;;
63316;SPS30;49822;41.468;13.560;2023-09-19T02:36:09;11.10;;4.82;;;;;;;
63316;SPS30;49822;41.468;13.560;2023-09-19T02:38:35;12.15;;5.10;;;;;;;
63316;SPS30;49822;41.468;13.560;2023-09-19T02:41:03;15.13;;5.35;;;;;;;
63316;SPS30;49822;41.468;13.560;2023-09-19T02:43:29;11.90;;5.38;;;;;;;
63316;SPS30;49822;41.468;13.560;2023-09-19T02:45:55;16.38;;5.85;;;;;;;
63316;SPS30;49822;41.468;13.560;2023-09-19T02:48:22;18.50;;5.40;;;;;;;
63316;SPS30;49822;41.468;13.560;2023-09-19T02:50:50;11.65;;5.05;;;;;;;
63316;SPS30;49822;41.468;13.560;2023-09-19T02:53:16;11.45;;5.22;;;;;;;
63316;SPS30;49822;41.468;13.560;2023-09-19T02:55:44;10.82;;4.68;;;;;;;
63316;SPS30;49822;41.468;13.560;2023-09-19T02:58:12;11.98;;4.95;;;;;;;
63316;SPS30;49822;41.468;13.560;2023-09-19T03:00:41;13.45;;4.68;;;;;;;
63316;SPS30;49822;41.468;13.560;2023-09-19T03:03:13;14.10;;5.45;;;;;;;
63316;SPS30;49822;41.468;13.560;2023-09-19T03:05:40;15.60;;5.50;;;;;;;
63316;SPS30;49822;41.468;13.560;2023-09-19T03:08:14;8.20;;4.60;;;;;;;
63316;SPS30;49822;41.468;13.560;2023-09-19T03:10:41;12.27;;4.80;;;;;;;
63316;SPS30;49822;41.468;13.560;2023-09-19T03:13:07;12.05;;5.30;;;;;;;
63316;SPS30;49822;41.468;13.560;2023-09-19T03:15:36;18.60;;5.50;;;;;;;
63316;SPS30;49822;41.468;13.560;2023-09-19T03:18:10;18.30;;5.70;;;;;;;
63316;SPS30;49822;41.468;13.560;2023-09-19T03:20:37;17.20;;5.13;;;;;;;
63316;SPS30;49822;41.468;13.560;2023-09-19T03:23:04;11.82;;5.78;;;;;;;
63316;SPS30;49822;41.468;13.560;2023-09-19T03:25:33;14.95;;5.13;;;;;;;
63316;SPS30;49822;41.468;13.560;2023-09-19T03:28:02;14.15;;5.40;;;;;;;
63316;SPS30;49822;41.468;13.560;2023-09-19T03:30:32;14.70;;5.68;;;;;;;
63316;SPS30;49822;41.468;13.560;2023-09-19T03:33:03;14.13;;5.47;;;;;;;
63316;SPS30;49822;41.468;13.560;2023-09-19T03:35:30;17.10;;5.85;;;;;;;
63316;SPS30;49822;41.468;13.560;2023-09-19T03:37:56;12.27;;5.15;;;;;;;
63316;SPS30;49822;41.468;13.560;2023-09-19T03:40:23;14.05;;5.70;;;;;;;
63316;SPS30;49822;41.468;13.560;2023-09-19T03:42:50;11.13;;5.30;;;;;;;
63316;SPS30;49822;41.468;13.560;2023-09-19T03:45:17;13.20;;5.60;;;;;;;
63316;SPS30;49822;41.468;13.560;2023-09-19T03:47:50;15.88;;5.03;;;;;;;
63316;SPS30;49822;41.468;13.560;2023-09-19T03:50:19;9.43;;4.68;;;;;;;
63316;SPS30;49822;41.468;13.560;2023-09-19T03:52:47;13.93;;5.47;;;;;;;
63316;SPS30;49822;41.468;13.560;2023-09-19T03:55:13;16.35;;6.13;;;;;;;
63316;SPS30;49822;41.468;13.560;2023-09-19T03:57:39;9.65;;4.97;;;;;;;
63316;SPS30;49822;41.468;13.560;2023-09-19T04:00:08;12.23;;6.00;;;;;;;
63316;SPS30;49822;41.468;13.560;2023-09-19T04:02:41;15.63;;6.18;;;;;;;
63316;SPS30;49822;41.468;13.560;2023-09-19T04:05:07;11.25;;5.80;;;;;;;
63316;SPS30;49822;41.468;13.560;2023-09-19T04:07:34;12.32;;6.10;;;;;;;
63316;SPS30;49822;41.468;13.560;2023-09-19T04:10:00;16.15;;6.53;;;;;;;
63316;SPS30;49822;41.468;13.560;2023-09-19T04:12:28;14.20;;5.78;;;;;;;
63316;SPS30;49822;41.468;13.560;2023-09-19T04:14:55;17.15;;5.97;;;;;;;
63316;SPS30;49822;41.468;13.560;2023-09-19T04:17:21;15.50;;5.60;;;;;;;
63316;SPS30;49822;41.468;13.560;2023-09-19T04:19:49;13.43;;5.50;;;;;;;
63316;SPS30;49822;41.468;13.560;2023-09-19T04:22:15;11.50;;4.47;;;;;;;
63316;SPS30;49822;41.468;13.560;2023-09-19T04:24:41;10.82;;5.03;;;;;;;
63316;SPS30;49822;41.468;13.560;2023-09-19T04:27:08;14.48;;5.47;;;;;;;
63316;SPS30;49822;41.468;13.560;2023-09-19T04:29:35;12.02;;5.43;;;;;;;
63316;SPS30;49822;41.468;13.560;2023-09-19T04:32:03;9.73;;5.32;;;;;;;
63316;SPS30;49822;41.468;13.560;2023-09-19T04:34:31;12.45;;5.22;;;;;;;
63316;SPS30;49822;41.468;13.560;2023-09-19T04:36:57;20.08;;6.32;;;;;;;
63316;SPS30;49822;41.468;13.560;2023-09-19T04:39:26;19.63;;5.38;;;;;;;
63316;SPS30;49822;41.468;13.560;2023-09-19T04:41:53;13.63;;5.60;;;;;;;
63316;SPS30;49822;41.468;13.560;2023-09-19T04:44:19;9.95;;4.97;;;;;;;
63316;SPS30;49822;41.468;13.560;2023-09-19T04:46:45;14.48;;5.82;;;;;;;
63316;SPS30;49822;41.468;13.560;2023-09-19T04:49:13;10.30;;4.90;;;;;;;
63316;SPS30;49822;41.468;13.560;2023-09-19T04:51:39;16.73;;5.63;;;;;;;
63316;SPS30;49822;41.468;13.560;2023-09-19T04:54:05;12.82;;4.60;;;;;;;
63316;SPS30;49822;41.468;13.560;2023-09-19T04:56:32;13.88;;5.70;;;;;;;
63316;SPS30;49822;41.468;13.560;2023-09-19T04:58:59;14.27;;4.68;;;;;;;
63316;SPS30;49822;41.468;13.560;2023-09-19T05:01:25;20.88;;5.50;;;;;;;
63316;SPS30;49822;41.468;13.560;2023-09-19T05:03:52;10.30;;5.38;;;;;;;
63316;SPS30;49822;41.468;13.560;2023-09-19T05:06:18;15.65;;5.30;;;;;;;
63316;SPS30;49822;41.468;13.560;2023-09-19T05:08:57;17.55;;5.50;;;;;;;
63316;SPS30;49822;41.468;13.560;2023-09-19T05:11:23;13.00;;6.22;;;;;;;
63316;SPS30;49822;41.468;13.560;2023-09-19T05:13:50;12.30;;5.45;;;;;;;
63316;SPS30;49822;41.468;13.560;2023-09-19T05:19:38;11.82;;4.47;;;;;;;
63316;SPS30;49822;41.468;13.560;2023-09-19T05:22:04;12.45;;5.25;;;;;;;
63316;SPS30;49822;41.468;13.560;2023-09-19T05:24:32;11.95;;5.22;;;;;;;
63316;SPS30;49822;41.468;13.560;2023-09-19T05:26:58;10.30;;4.55;;;;;;;
63316;SPS30;49822;41.468;13.560;2023-09-19T05:29:24;7.40;;3.92;;;;;;;
63316;SPS30;49822;41.468;13.560;2023-09-19T05:31:50;14.25;;4.93;;;;;;;
63316;SPS30;49822;41.468;13.560;2023-09-19T05:34:16;16.25;;4.88;;;;;;;
63316;SPS30;49822;41.468;13.560;2023-09-19T05:36:42;13.60;;5.30;;;;;;;
63316;SPS30;49822;41.468;13.560;2023-09-19T05:39:09;14.75;;5.20;;;;;;;
63316;SPS30;49822;41.468;13.560;2023-09-19T05:41:35;17.23;;4.95;;;;;;;
63316;SPS30;49822;41.468;13.560;2023-09-19T05:44:14;9.57;;4.03;;;;;;;
63316;SPS30;49822;41.468;13.560;2023-09-19T05:46:41;11.35;;4.47;;;;;;;
63316;SPS30;49822;41.468;13.560;2023-09-19T05:49:07;13.00;;5.03;;;;;;;
63316;SPS30;49822;41.468;13.560;2023-09-19T05:51:33;9.82;;4.10;;;;;;;
63316;SPS30;49822;41.468;13.560;2023-09-19T05:54:00;12.68;;4.80;;;;;;;
63316;SPS30;49822;41.468;13.560;2023-09-19T05:56:27;13.63;;4.85;;;;;;;
63316;SPS30;49822;41.468;13.560;2023-09-19T05:58:53;10.95;;4.70;;;;;;;
63316;SPS30;49822;41.468;13.560;2023-09-19T06:01:19;13.52;;4.40;;;;;;;
63316;SPS30;49822;41.468;13.560;2023-09-19T06:03:46;10.77;;4.45;;;;;;;
63316;SPS30;49822;41.468;13.560;2023-09-19T06:06:12;10.48;;4.38;;;;;;;
63316;SPS30;49822;41.468;13.560;2023-09-19T06:08:38;16.10;;4.82;;;;;;;
63316;SPS30;49822;41.468;13.560;2023-09-19T06:11:04;10.75;;4.60;;;;;;;
63316;SPS30;49822;41.468;13.560;2023-09-19T06:13:34;11.70;;3.63;;;;;;;
63316;SPS30;49822;41.468;13.560;2023-09-19T06:16:01;10.20;;3.30;;;;;;;
63316;SPS30;49822;41.468;13.560;2023-09-19T06:18:33;10.93;;3.60;;;;;;;
63316;SPS30;49822;41.468;13.560;2023-09-19T06:20:59;14.57;;4.80;;;;;;;
63316;SPS30;49822;41.468;13.560;2023-09-19T06:23:26;15.52;;4.10;;;;;;;
63316;SPS30;49822;41.468;13.560;2023-09-19T06:25:54;11.25;;3.97;;;;;;;
63316;SPS30;49822;41.468;13.560;2023-09-19T06:28:20;7.13;;4.07;;;;;;;
63316;SPS30;49822;41.468;13.560;2023-09-19T06:30:50;12.40;;4.40;;;;;;;
63316;SPS30;49822;41.468;13.560;2023-09-19T06:33:16;8.85;;4.35;;;;;;;
63316;SPS30;49822;41.468;13.560;2023-09-19T06:35:43;10.50;;4.38;;;;;;;
63316;SPS30;49822;41.468;13.560;2023-09-19T06:38:10;13.95;;3.80;;;;;;;
63316;SPS30;49822;41.468;13.560;2023-09-19T06:40:42;11.45;;3.60;;;;;;;
63316;SPS30;49822;41.468;13.560;2023-09-19T06:43:09;12.38;;3.75;;;;;;;
63316;SPS30;49822;41.468;13.560;2023-09-19T06:45:37;10.60;;4.30;;;;;;;
63316;SPS30;49822;41.468;13.560;2023-09-19T06:48:04;13.57;;4.60;;;;;;;
63316;SPS30;49822;41.468;13.560;2023-09-19T06:50:31;12.73;;4.45;;;;;;;
63316;SPS30;49822;41.468;13.560;2023-09-19T06:53:01;14.13;;4.90;;;;;;;
63316;SPS30;49822;41.468;13.560;2023-09-19T06:55:27;13.63;;4.57;;;;;;;
63316;SPS30;49822;41.468;13.560;2023-09-19T06:57:57;9.13;;4.22;;;;;;;
63316;SPS30;49822;41.468;13.560;2023-09-19T07:00:25;12.75;;4.45;;;;;;;
63316;SPS30;49822;41.468;13.560;2023-09-19T07:02:57;11.18;;4.40;;;;;;;
63316;SPS30;49822;41.468;13.560;2023-09-19T07:05:34;12.77;;4.72;;;;;;;
63316;SPS30;49822;41.468;13.560;2023-09-19T07:08:04;12.23;;4.93;;;;;;;
63316;SPS30;49822;41.468;13.560;2023-09-19T07:10:32;16.17;;4.93;;;;;;;
63316;SPS30;49822;41.468;13.560;2023-09-19T07:15:26;11.50;;4.72;;;;;;;
63316;SPS30;49822;41.468;13.560;2023-09-19T07:17:56;13.57;;4.88;;;;;;;
63316;SPS30;49822;41.468;13.560;2023-09-19T07:20:23;15.38;;4.78;;;;;;;
63316;SPS30;49822;41.468;13.560;2023-09-19T07:22:55;10.38;;4.32;;;;;;;
63316;SPS30;49822;41.468;13.560;2023-09-19T07:25:21;10.65;;4.53;;;;;;;
63316;SPS30;49822;41.468;13.560;2023-09-19T07:27:48;11.02;;3.92;;;;;;;
63316;SPS30;49822;41.468;13.560;2023-09-19T07:30:14;9.15;;4.13;;;;;;;
63316;SPS30;49822;41.468;13.560;2023-09-19T07:32:43;13.98;;3.95;;;;;;;
63316;SPS30;49822;41.468;13.560;2023-09-19T07:35:09;8.40;;3.95;;;;;;;
63316;SPS30;49822;41.468;13.560;2023-09-19T07:37:37;13.57;;4.18;;;;;;;
63316;SPS30;49822;41.468;13.560;2023-09-19T07:40:05;8.82;;4.13;;;;;;;
63316;SPS30;49822;41.468;13.560;2023-09-19T07:42:36;9.52;;3.25;;;;;;;
63316;SPS30;49822;41.468;13.560;2023-09-19T07:45:04;11.18;;4.75;;;;;;;
63316;SPS30;49822;41.468;13.560;2023-09-19T07:50:21;16.98;;4.80;;;;;;;
63316;SPS30;49822;41.468;13.560;2023-09-19T07:52:48;8.93;;3.47;;;;;;;
63316;SPS30;49822;41.468;13.560;2023-09-19T07:55:18;13.33;;3.80;;;;;;;
63316;SPS30;49822;41.468;13.560;2023-09-19T07:57:49;12.70;;4.50;;;;;;;
63316;SPS30;49822;41.468;13.560;2023-09-19T08:00:16;20.13;;4.80;;;;;;;
63316;SPS30;49822;41.468;13.560;2023-09-19T08:02:45;9.15;;4.53;;;;;;;
63316;SPS30;49822;41.468;13.560;2023-09-19T08:05:11;8.85;;3.90;;;;;;;
63316;SPS30;49822;41.468;13.560;2023-09-19T08:07:41;10.48;;4.13;;;;;;;
63316;SPS30;49822;41.468;13.560;2023-09-19T08:10:10;14.40;;4.80;;;;;;;
63316;SPS30;49822;41.468;13.560;2023-09-19T08:12:42;19.00;;5.03;;;;;;;
63316;SPS30;49822;41.468;13.560;2023-09-19T08:15:22;12.80;;4.53;;;;;;;
63316;SPS30;49822;41.468;13.560;2023-09-19T08:20:18;13.30;;4.20;;;;;;;
63316;SPS30;49822;41.468;13.560;2023-09-19T08:22:51;7.45;;4.03;;;;;;;
63316;SPS30;49822;41.468;13.560;2023-09-19T08:25:19;16.55;;4.80;;;;;;;
63316;SPS30;49822;41.468;13.560;2023-09-19T08:27:50;13.75;;3.90;;;;;;;
63316;SPS30;49822;41.468;13.560;2023-09-19T08:30:17;12.82;;4.35;;;;;;;
63316;SPS30;49822;41.468;13.560;2023-09-19T08:32:51;13.90;;4.60;;;;;;;
63316;SPS30;49822;41.468;13.560;2023-09-19T08:37:49;10.55;;4.13;;;;;;;
63316;SPS30;49822;41.468;13.560;2023-09-19T08:40:16;15.90;;4.43;;;;;;;
63316;SPS30;49822;41.468;13.560;2023-09-19T08:45:16;13.10;;4.28;;;;;;;
63316;SPS30;49822;41.468;13.560;2023-09-19T08:47:46;14.20;;4.22;;;;;;;
63316;SPS30;49822;41.468;13.560;2023-09-19T08:50:19;14.65;;4.45;;;;;;;
63316;SPS30;49822;41.468;13.560;2023-09-19T08:52:51;12.38;;4.00;;;;;;;
63316;SPS30;49822;41.468;13.560;2023-09-19T08:55:20;17.67;;4.45;;;;;;;
63316;SPS30;49822;41.468;13.560;2023-09-19T08:57:51;13.30;;3.97;;;;;;;
63316;SPS30;49822;41.468;13.560;2023-09-19T09:00:24;13.23;;4.60;;;;;;;
63316;SPS30;49822;41.468;13.560;2023-09-19T09:03:16;10.38;;3.92;;;;;;;
63316;SPS30;49822;41.468;13.560;2023-09-19T09:05:57;15.38;;4.43;;;;;;;
63316;SPS30;49822;41.468;13.560;2023-09-19T09:08:23;10.95;;4.22;;;;;;;
63316;SPS30;49822;41.468;13.560;2023-09-19T09:10:51;13.57;;4.70;;;;;;;
63316;SPS30;49822;41.468;13.560;2023-09-19T09:13:17;8.57;;4.13;;;;;;;
63316;SPS30;49822;41.468;13.560;2023-09-19T09:15:44;10.20;;4.38;;;;;;;
63316;SPS30;49822;41.468;13.560;2023-09-19T09:18:13;17.17;;4.53;;;;;;;
63316;SPS30;49822;41.468;13.560;2023-09-19T09:20:39;10.20;;4.25;;;;;;;
63316;SPS30;49822;41.468;13.560;2023-09-19T09:23:05;14.98;;4.22;;;;;;;
63316;SPS30;49822;41.468;13.560;2023-09-19T09:28:25;9.07;;4.13;;;;;;;
63316;SPS30;49822;41.468;13.560;2023-09-19T09:30:54;9.95;;3.97;;;;;;;
63316;SPS30;49822;41.468;13.560;2023-09-19T09:33:20;12.32;;4.07;;;;;;;
63316;SPS30;49822;41.468;13.560;2023-09-19T09:38:22;10.68;;4.30;;;;;;;
63316;SPS30;49822;41.468;13.560;2023-09-19T09:40:59;16.88;;5.25;;;;;;;
63316;SPS30;49822;41.468;13.560;2023-09-19T09:43:27;13.13;;4.20;;;;;;;
63316;SPS30;49822;41.468;13.560;2023-09-19T09:46:18;13.60;;4.57;;;;;;;
63316;SPS30;49822;41.468;13.560;2023-09-19T09:51:38;11.98;;4.18;;;;;;;
63316;SPS30;49822;41.468;13.560;2023-09-19T09:54:23;8.35;;3.60;;;;;;;
63316;SPS30;49822;41.468;13.560;2023-09-19T09:57:03;12.25;;3.70;;;;;;;
63316;SPS30;49822;41.468;13.560;2023-09-19T09:59:49;13.52;;4.00;;;;;;;
63316;SPS30;49822;41.468;13.560;2023-09-19T10:02:19;8.52;;3.47;;;;;;;
63316;SPS30;49822;41.468;13.560;2023-09-19T10:04:51;11.73;;3.60;;;;;;;
63316;SPS30;49822;41.468;13.560;2023-09-19T10:07:24;10.10;;3.30;;;;;;;
63316;SPS30;49822;41.468;13.560;2023-09-19T10:09:51;9.70;;3.42;;;;;;;
63316;SPS30;49822;41.468;13.560;2023-09-19T10:12:17;9.40;;3.42;;;;;;;
63316;SPS30;49822;41.468;13.560;2023-09-19T10:14:47;8.10;;3.33;;;;;;;
63316;SPS30;49822;41.468;13.560;2023-09-19T10:17:15;9.00;;3.70;;;;;;;
63316;SPS30;49822;41.468;13.560;2023-09-19T10:19:54;6.65;;3.35;;;;;;;
63316;SPS30;49822;41.468;13.560;2023-09-19T10:22:23;10.02;;3.70;;;;;;;
63316;SPS30;49822;41.468;13.560;2023-09-19T10:24:53;8.70;;3.00;;;;;;;
63316;SPS30;49822;41.468;13.560;2023-09-19T10:27:20;12.88;;3.13;;;;;;;
63316;SPS30;49822;41.468;13.560;2023-09-19T10:29:51;8.38;;3.08;;;;;;;
63316;SPS30;49822;41.468;13.560;2023-09-19T10:32:22;13.90;;2.67;;;;;;;
63316;SPS30;49822;41.468;13.560;2023-09-19T10:34:50;10.38;;3.03;;;;;;;
63316;SPS30;49822;41.468;13.560;2023-09-19T10:37:20;12.23;;2.55;;;;;;;
63316;SPS30;49822;41.468;13.560;2023-09-19T10:39:52;10.75;;3.08;;;;;;;
63316;SPS30;49822;41.468;13.560;2023-09-19T10:42:21;6.95;;2.30;;;;;;;
63316;SPS30;49822;41.468;13.560;2023-09-19T10:44:54;7.68;;2.10;;;;;;;
63316;SPS30;49822;41.468;13.560;2023-09-19T10:47:25;11.93;;2.30;;;;;;;
63316;SPS30;49822;41.468;13.560;2023-09-19T10:49:52;10.52;;2.45;;;;;;;
63316;SPS30;49822;41.468;13.560;2023-09-19T10:52:20;8.93;;2.90;;;;;;;
63316;SPS30;49822;41.468;13.560;2023-09-19T10:54:52;10.45;;2.97;;;;;;;
63316;SPS30;49822;41.468;13.560;2023-09-19T10:57:23;7.88;;2.33;;;;;;;
63316;SPS30;49822;41.468;13.560;2023-09-19T11:00:06;11.30;;2.53;;;;;;;
63316;SPS30;49822;41.468;13.560;2023-09-19T11:05:37;5.10;;2.17;;;;;;;
63316;SPS30;49822;41.468;13.560;2023-09-19T11:08:08;11.98;;2.50;;;;;;;
63316;SPS30;49822;41.468;13.560;2023-09-19T11:10:46;7.00;;2.20;;;;;;;
63316;SPS30;49822;41.468;13.560;2023-09-19T11:13:27;10.95;;2.20;;;;;;;
63316;SPS30;49822;41.468;13.560;2023-09-19T11:16:03;7.10;;2.88;;;;;;;
63316;SPS30;49822;41.468;13.560;2023-09-19T11:26:57;12.05;;2.33;;;;;;;
63316;SPS30;49822;41.468;13.560;2023-09-19T11:29:37;11.00;;2.55;;;;;;;
63316;SPS30;49822;41.468;13.560;2023-09-19T11:32:04;9.30;;2.38;;;;;;;
63316;SPS30;49822;41.468;13.560;2023-09-19T11:39:39;12.60;;2.65;;;;;;;
63316;SPS30;49822;41.468;13.560;2023-09-19T11:48:16;14.45;;2.63;;;;;;;
63316;SPS30;49822;41.468;13.560;2023-09-19T11:50:47;9.40;;2.40;;;;;;;
63316;SPS30;49822;41.468;13.560;2023-09-19T11:53:14;8.00;;2.63;;;;;;;
63316;SPS30;49822;41.468;13.560;2023-09-19T11:55:41;15.55;;2.78;;;;;;;
63316;SPS30;49822;41.468;13.560;2023-09-19T11:58:11;14.70;;2.67;;;;;;;
63316;SPS30;49822;41.468;13.560;2023-09-19T12:00:43;11.77;;2.95;;;;;;;
63316;SPS30;49822;41.468;13.560;2023-09-19T12:03:11;12.65;;2.50;;;;;;;
63316;SPS30;49822;41.468;13.560;2023-09-19T12:05:39;16.95;;2.97;;;;;;;
63316;SPS30;49822;41.468;13.560;2023-09-19T12:08:08;8.15;;2.80;;;;;;;
63316;SPS30;49822;41.468;13.560;2023-09-19T12:10:55;12.65;;2.65;;;;;;;
63316;SPS30;49822;41.468;13.560;2023-09-19T12:13:21;17.08;;3.35;;;;;;;
63316;SPS30;49822;41.468;13.560;2023-09-19T12:15:48;11.10;;2.80;;;;;;;
63316;SPS30;49822;41.468;13.560;2023-09-19T12:18:27;6.95;;2.33;;;;;;;
63316;SPS30;49822;41.468;13.560;2023-09-19T12:20:55;8.45;;2.40;;;;;;;
63316;SPS30;49822;41.468;13.560;2023-09-19T12:23:23;10.05;;2.47;;;;;;;
63316;SPS30;49822;41.468;13.560;2023-09-19T12:25:51;12.43;;2.90;;;;;;;
63316;SPS30;49822;41.468;13.560;2023-09-19T12:28:19;11.23;;3.25;;;;;;;
63316;SPS30;49822;41.468;13.560;2023-09-19T12:30:49;11.50;;2.50;;;;;;;
63316;SPS30;49822;41.468;13.560;2023-09-19T12:33:20;10.93;;3.20;;;;;;;
63316;SPS30;49822;41.468;13.560;2023-09-19T12:35:51;9.93;;2.60;;;;;;;
63316;SPS30;49822;41.468;13.560;2023-09-19T12:38:25;14.05;;2.42;;;;;;;
63316;SPS30;49822;41.468;13.560;2023-09-19T12:40:58;16.65;;3.63;;;;;;;
63316;SPS30;49822;41.468;13.560;2023-09-19T12:43:28;7.95;;3.33;;;;;;;
63316;SPS30;49822;41.468;13.560;2023-09-19T12:48:25;27.20;;3.60;;;;;;;
63316;SPS30;49822;41.468;13.560;2023-09-19T12:56:08;13.65;;2.92;;;;;;;
63316;SPS30;49822;41.468;13.560;2023-09-19T12:58:48;14.45;;3.35;;;;;;;
63316;SPS30;49822;41.468;13.560;2023-09-19T13:01:27;10.73;;2.85;;;;;;;
63316;SPS30;49822;41.468;13.560;2023-09-19T13:06:59;11.13;;2.53;;;;;;;
63316;SPS30;49822;41.468;13.560;2023-09-19T13:09:30;14.98;;3.25;;;;;;;
63316;SPS30;49822;41.468;13.560;2023-09-19T13:12:00;7.95;;2.72;;;;;;;
63316;SPS30;49822;41.468;13.560;2023-09-19T13:14:28;18.65;;3.15;;;;;;;
63316;SPS30;49822;41.468;13.560;2023-09-19T13:17:01;11.07;;2.65;;;;;;;
63316;SPS30;49822;41.468;13.560;2023-09-19T13:19:49;7.55;;2.78;;;;;;;
63316;SPS30;49822;41.468;13.560;2023-09-19T13:22:38;13.75;;2.67;;;;;;;
63316;SPS30;49822;41.468;13.560;2023-09-19T13:25:07;15.25;;3.05;;;;;;;
63316;SPS30;49822;41.468;13.560;2023-09-19T13:27:43;10.07;;3.00;;;;;;;
63316;SPS30;49822;41.468;13.560;2023-09-19T13:30:14;12.50;;2.88;;;;;;;
63316;SPS30;49822;41.468;13.560;2023-09-19T13:32:41;13.55;;3.67;;;;;;;
63316;SPS30;49822;41.468;13.560;2023-09-19T13:35:08;8.52;;2.55;;;;;;;
63316;SPS30;49822;41.468;13.560;2023-09-19T13:37:35;13.05;;3.10;;;;;;;
63316;SPS30;49822;41.468;13.560;2023-09-19T13:40:11;9.10;;2.85;;;;;;;
63316;SPS30;49822;41.468;13.560;2023-09-19T13:42:39;11.35;;2.60;;;;;;;
63316;SPS30;49822;41.468;13.560;2023-09-19T13:45:06;11.30;;3.17;;;;;;;
63316;SPS30;49822;41.468;13.560;2023-09-19T13:47:37;8.27;;2.92;;;;;;;
63316;SPS30;49822;41.468;13.560;2023-09-19T13:50:04;9.32;;2.80;;;;;;;
63316;SPS30;49822;41.468;13.560;2023-09-19T13:52:31;9.15;;2.92;;;;;;;
63316;SPS30;49822;41.468;13.560;2023-09-19T13:54:57;13.73;;3.38;;;;;;;
63316;SPS30;49822;41.468;13.560;2023-09-19T13:57:25;13.40;;3.15;;;;;;;
63316;SPS30;49822;41.468;13.560;2023-09-19T13:59:51;10.18;;3.00;;;;;;;
63316;SPS30;49822;41.468;13.560;2023-09-19T14:02:20;13.98;;3.35;;;;;;;
63316;SPS30;49822;41.468;13.560;2023-09-19T14:04:48;11.45;;3.40;;;;;;;
63316;SPS30;49822;41.468;13.560;2023-09-19T14:07:15;15.10;;3.72;;;;;;;
63316;SPS30;49822;41.468;13.560;2023-09-19T14:09:43;8.13;;2.65;;;;;;;
63316;SPS30;49822;41.468;13.560;2023-09-19T14:12:09;15.40;;4.22;;;;;;;
63316;SPS30;49822;41.468;13.560;2023-09-19T14:14:36;10.93;;3.55;;;;;;;
63316;SPS30;49822;41.468;13.560;2023-09-19T14:17:02;9.40;;3.20;;;;;;;
63316;SPS30;49822;41.468;13.560;2023-09-19T14:19:29;15.73;;4.53;;;;;;;
63316;SPS30;49822;41.468;13.560;2023-09-19T14:21:56;5.30;;3.00;;;;;;;
63316;SPS30;49822;41.468;13.560;2023-09-19T14:24:23;11.68;;3.53;;;;;;;
63316;SPS30;49822;41.468;13.560;2023-09-19T14:26:49;10.57;;3.20;;;;;;;
63316;SPS30;49822;41.468;13.560;2023-09-19T14:29:16;9.95;;4.00;;;;;;;
63316;SPS30;49822;41.468;13.560;2023-09-19T14:31:42;7.53;;3.05;;;;;;;
63316;SPS30;49822;41.468;13.560;2023-09-19T14:34:09;12.15;;3.40;;;;;;;
63316;SPS30;49822;41.468;13.560;2023-09-19T14:36:35;15.30;;3.55;;;;;;;
63316;SPS30;49822;41.468;13.560;2023-09-19T14:39:04;13.23;;3.22;;;;;;;
63316;SPS30;49822;41.468;13.560;2023-09-19T14:41:30;9.98;;3.20;;;;;;;
63316;SPS30;49822;41.468;13.560;2023-09-19T14:43:57;9.93;;3.58;;;;;;;
63316;SPS30;49822;41.468;13.560;2023-09-19T14:46:23;11.05;;3.25;;;;;;;
63316;SPS30;49822;41.468;13.560;2023-09-19T14:48:52;10.13;;3.15;;;;;;;
63316;SPS30;49822;41.468;13.560;2023-09-19T14:51:18;12.55;;3.15;;;;;;;
63316;SPS30;49822;41.468;13.560;2023-09-19T14:53:45;8.85;;3.28;;;;;;;
63316;SPS30;49822;41.468;13.560;2023-09-19T14:56:12;11.70;;3.80;;;;;;;
63316;SPS30;49822;41.468;13.560;2023-09-19T14:58:41;14.55;;3.38;;;;;;;
63316;SPS30;49822;41.468;13.560;2023-09-19T15:01:10;10.20;;3.33;;;;;;;
63316;SPS30;49822;41.468;13.560;2023-09-19T15:03:39;15.43;;3.22;;;;;;;
63316;SPS30;49822;41.468;13.560;2023-09-19T15:06:07;11.02;;3.70;;;;;;;
63316;SPS30;49822;41.468;13.560;2023-09-19T15:08:35;11.13;;3.38;;;;;;;
63316;SPS30;49822;41.468;13.560;2023-09-19T15:11:08;10.48;;3.47;;;;;;;
63316;SPS30;49822;41.468;13.560;2023-09-19T15:13:36;9.80;;3.42;;;;;;;